Latest Weather Observations for Perth

IDW60901

Issued at 11:11 am WST Friday 26 August 2016 (issued every 10 minutes, with the page automatically refreshed every 10 minutes)

About weather observations | Map of Perth area stations | Latest observations for Perth area | Other Formats
Station Details ID: 009225 Name: PERTH METRO Lat: -31.92 Lon: 115.87 Height: 24.9 m
Data from the previous 72 hours. | See also: Recent months at Perth
Date/Time
WST
Temp
°C
App
Temp
°C
Dew
Point
°C
Rel
Hum
%
Delta-T
°C
Wind Press
QNH
hPa
Press
MSL
hPa
Rain since
9am
mm
Dir  Spd
km/h
Gust
km/h
Spd
kts
Gust
kts
26/11:00am 18.7 13.9 4.8 40 6.7 N 19 33 10 18 1011.5 1011.5 0.0
26/10:30am 17.7 13.3 4.6 42 6.2 NNE 17 33 9 18 1011.9 1011.9 0.0
26/10:00am 17.5 13.1 4.8 43 6.1 NNE 17 28 9 15 1012.5 1012.4 0.0
26/09:30am 16.6 12.5 4.3 44 5.8 NNE 15 28 8 15 1012.9 1012.8 0.0
26/09:00am 16.5 12.1 4.9 46 5.5 NNE 17 30 9 16 1013.0 1012.9 0.0
26/08:30am 15.6 11.2 4.6 48 5.2 NNE 17 26 9 14 1013.4 1013.3 0.0
26/08:00am 15.1 10.2 3.9 47 5.1 NNE 19 28 10 15 1013.3 1013.2 0.0
26/07:30am 14.5 10.4 4.2 50 4.7 NNE 15 22 8 12 1013.3 1013.2 0.0
26/07:00am 13.7 11.1 4.0 52 4.4 NNE 7 13 4 7 1013.2 1013.1 0.0
26/06:30am 13.7 10.7 4.0 52 4.4 NE 9 15 5 8 1013.3 1013.2 0.0
26/06:00am 13.9 10.2 4.2 52 4.4 NE 13 22 7 12 1013.1 1013.0 0.0
26/05:30am 13.6 10.3 4.5 54 4.2 NE 11 19 6 10 1013.4 1013.3 0.0
26/05:00am 13.8 10.5 4.4 53 4.3 NE 11 15 6 8 1013.7 1013.6 0.0
26/04:30am 14.2 10.5 4.5 52 4.5 NE 13 20 7 11 1013.7 1013.6 0.0
26/04:00am 14.5 10.8 4.5 51 4.6 NE 13 19 7 10 1013.8 1013.7 0.0
26/03:30am 14.5 10.9 4.8 52 4.5 NE 13 19 7 10 1014.1 1014.0 0.0
26/03:00am 14.6 10.9 4.6 51 4.6 NE 13 20 7 11 1014.4 1014.3 0.0
26/02:30am 14.6 10.9 4.6 51 4.6 NE 13 19 7 10 1014.8 1014.7 0.0
26/02:00am 15.0 11.3 4.4 49 4.9 NE 13 20 7 11 1015.2 1015.2 0.0
26/01:30am 14.6 11.0 4.9 52 4.5 NE 13 22 7 12 1016.0 1016.0 0.0
26/01:00am 13.3 10.9 5.2 58 3.8 NE 7 9 4 5 1016.4 1016.4 0.0
26/12:30am 13.4 10.6 5.3 58 3.8 NE 9 11 5 6 1016.4 1016.4 0.0
26/12:00am 13.4 11.2 5.3 58 3.8 NE 6 9 3 5 1016.9 1016.9 0.0
 
Date/Time
WST
Temp
°C
App
Temp
°C
Dew
Point
°C
Rel
Hum
%
Delta-T
°C
Wind Press
QNH
hPa
Press
MSL
hPa
Rain since
9am
mm
Dir  Spd
km/h
Gust
km/h
Spd
kts
Gust
kts
25/11:30pm 14.0 11.2 5.1 55 4.2 ENE 9 13 5 7 1017.0 1017.0 0.0
25/11:00pm 13.7 11.4 5.6 58 3.8 ENE 7 11 4 6 1017.4 1017.4 0.0
25/10:30pm 13.8 11.5 5.7 58 3.8 ENE 7 13 4 7 1018.0 1018.0 0.0
25/10:00pm 13.5 11.2 5.9 60 3.6 ENE 7 11 4 6 1018.4 1018.4 0.0
25/09:30pm 13.2 11.6 6.3 63 3.3 ENE 4 9 2 5 1018.5 1018.5 0.0
25/09:00pm 13.3 11.3 6.4 63 3.3 ENE 6 11 3 6 1018.5 1018.5 0.0
25/08:30pm 13.6 12.5 6.7 63 3.3 ENE 2 6 1 3 1018.8 1018.8 0.0
25/08:00pm 14.5 13.1 7.1 61 3.6 ENE 4 7 2 4 1018.9 1018.9 0.0
25/07:30pm 14.9 13.0 6.7 58 4.0 ENE 6 9 3 5 1018.8 1018.8 0.0
25/07:00pm 15.5 13.1 6.8 56 4.3 ENE 9 15 5 8 1018.7 1018.7 0.0
25/06:30pm 15.6 13.7 6.6 55 4.4 E 6 13 3 7 1018.8 1018.8 0.0
25/06:00pm 16.2 14.1 6.6 53 4.7 ENE 7 13 4 7 1018.8 1018.8 0.0
25/05:30pm 16.7 13.7 6.2 50 5.1 ENE 11 19 6 10 1018.5 1018.5 0.0
25/05:00pm 17.0 13.7 6.5 50 5.2 ENE 13 22 7 12 1018.6 1018.6 0.0
25/04:30pm 17.4 13.7 6.3 48 5.5 ENE 15 22 8 12 1019.0 1019.0 0.0
25/04:00pm 18.5 15.0 7.0 47 5.8 ENE 15 28 8 15 1018.8 1018.8 0.0
25/03:30pm 18.2 13.8 6.7 47 5.7 NE 19 32 10 17 1019.2 1019.2 0.0
25/03:00pm 18.0 14.2 5.9 45 5.9 ENE 15 30 8 16 1019.5 1019.5 0.0
25/02:30pm 17.9 13.8 6.1 46 5.8 ENE 17 26 9 14 1020.0 1020.0 0.0
25/02:00pm 17.8 14.0 6.0 46 5.8 NE 15 28 8 15 1020.4 1020.4 0.0
25/01:30pm 17.5 13.8 6.1 47 5.6 NE 15 24 8 13 1021.2 1021.2 0.0
25/01:00pm 17.1 13.8 6.6 50 5.2 NE 13 22 7 12 1021.6 1021.6 0.0
25/12:30pm 16.9 13.4 7.3 53 4.8 NE 15 22 8 12 1022.3 1022.3 0.0
25/12:00pm 16.3 13.1 6.7 53 4.7 E 13 20 7 11 1022.8 1022.8 0.0
25/11:30am 16.3 13.5 7.0 54 4.6 ENE 11 22 6 12 1023.5 1023.5 0.0
25/11:00am 15.6 12.4 6.9 56 4.3 ENE 13 24 7 13 1023.9 1023.9 0.0
25/10:30am 14.5 11.2 6.3 58 3.9 ENE 13 28 7 15 1024.6 1024.6 0.0
25/10:00am 14.1 10.5 6.7 61 3.6 ENE 15 24 8 13 1024.9 1024.9 0.0
25/09:30am 12.8 8.6 5.9 63 3.3 NE 17 26 9 14 1025.2 1025.2 0.0
25/09:00am 12.0 8.7 6.5 69 2.6 ENE 13 22 7 12 1025.4 1025.4 0.0
25/08:30am 10.9 7.2 6.1 72 2.2 ENE 15 24 8 13 1025.4 1025.4 0.0
25/08:00am 10.0 7.0 5.8 75 1.9 NE 11 19 6 10 1025.4 1025.4 0.0
25/07:30am 8.5 5.3 5.3 80 1.4 NE 11 17 6 9 1025.2 1025.2 0.0
25/07:00am 7.9 4.6 4.8 81 1.4 NE 11 17 6 9 1025.0 1025.0 0.0
25/06:30am 7.9 4.6 4.7 80 1.4 NE 11 17 6 9 1024.5 1024.5 0.0
25/06:00am 7.6 4.7 4.6 81 1.3 ENE 9 15 5 8 1024.3 1024.3 0.0
25/05:30am 6.5 4.0 4.0 84 1.1 ESE 6 9 3 5 1024.2 1024.2 0.0
25/05:00am 6.4 4.7 3.9 84 1.1 ESE 2 11 1 6 1024.0 1024.0 0.0
25/04:30am 6.5 4.8 3.8 83 1.1 ENE 2 7 1 4 1023.9 1023.9 0.0
25/04:00am 6.6 4.9 4.1 84 1.1 ENE 2 19 1 10 1023.7 1023.7 0.0
25/03:30am 6.6 4.9 4.1 84 1.1 ENE 2 6 1 3 1023.8 1023.8 0.0
25/03:00am 6.9 4.8 4.0 82 1.2 ENE 4 7 2 4 1023.8 1023.8 0.0
25/02:30am 7.8 6.1 4.2 78 1.6 ENE 2 9 1 5 1024.1 1024.1 0.0
25/02:00am 8.3 5.7 4.1 75 1.8 ENE 7 11 4 6 1024.4 1024.4 0.0
25/01:30am 8.9 6.0 4.5 74 1.9 E 9 20 5 11 1024.4 1024.4 0.0
25/01:00am 8.4 5.5 4.6 77 1.7 ESE 9 19 5 10 1024.5 1024.5 0.0
25/12:30am 7.8 5.4 4.2 78 1.6 ESE 6 11 3 6 1024.6 1024.6 0.0
25/12:00am 7.8 5.2 4.2 78 1.6 E 7 15 4 8 1024.7 1024.7 0.0
 
Date/Time
WST
Temp
°C
App
Temp
°C
Dew
Point
°C
Rel
Hum
%
Delta-T
°C
Wind Press
QNH
hPa
Press
MSL
hPa
Rain since
9am
mm
Dir  Spd
km/h
Gust
km/h
Spd
kts
Gust
kts
24/11:30pm 6.5 5.2 4.0 84 1.1 CALM 0 6 0 3 1025.0 1025.0 0.0
24/11:00pm 7.3 6.0 4.3 81 1.3 CALM 0 0 0 0 1025.0 1025.0 0.0
24/10:30pm 7.7 6.0 4.1 78 1.6 ESE 2 7 1 4 1025.1 1025.1 0.0
24/10:00pm 8.3 5.9 4.3 76 1.7 ESE 6 7 3 4 1025.2 1025.2 0.0
24/09:30pm 8.9 7.3 4.3 73 2.0 ESE 2 6 1 3 1025.2 1025.2 0.0
24/09:00pm 9.6 7.6 4.4 70 2.3 ESE 4 9 2 5 1025.0 1025.0 0.0
24/08:30pm 9.3 8.0 4.1 70 2.3 CALM 0 0 0 0 1025.1 1025.1 0.0
24/08:00pm 10.3 8.2 4.0 65 2.8 ESE 4 6 2 3 1025.3 1025.3 0.0
24/07:30pm 11.5 9.0 4.0 60 3.4 ESE 6 9 3 5 1025.4 1025.4 0.0
24/07:00pm 12.3 9.7 4.0 57 3.7 ESE 7 11 4 6 1025.2 1025.2 0.0
24/06:30pm 13.2 10.5 3.8 53 4.2 ESE 7 13 4 7 1024.9 1024.9 0.0
24/06:00pm 13.9 10.8 3.7 50 4.6 E 9 17 5 9 1024.3 1024.3 0.0
24/05:30pm 14.8 11.3 3.6 47 5.1 SE 11 20 6 11 1024.1 1024.1 0.0
24/05:00pm 15.6 12.5 3.4 44 5.5 E 9 19 5 10 1023.7 1023.7 0.0
24/04:30pm 16.3 13.1 3.0 41 6.1 E 9 20 5 11 1023.7 1023.7 0.0
24/04:00pm 16.6 13.9 3.7 42 5.9 ESE 7 13 4 7 1023.7 1023.7 0.0
24/03:30pm 16.3 13.1 3.0 41 6.1 E 9 17 5 9 1023.6 1023.6 0.0
24/03:00pm 16.3 13.2 3.4 42 5.9 ESE 9 22 5 12 1023.5 1023.5 0.0
24/02:30pm 16.0 12.8 2.8 41 6.0 ESE 9 17 5 9 1023.7 1023.7 0.0
24/02:00pm 16.1 12.8 2.2 39 6.2 ENE 9 17 5 9 1024.0 1024.0 0.0
24/01:30pm 15.3 11.9 2.1 41 5.9 E 9 17 5 9 1024.3 1024.3 0.0
24/01:00pm 15.3 12.1 2.8 43 5.6 E 9 17 5 9 1024.7 1024.7 0.0
24/12:30pm 14.9 10.8 2.1 42 5.7 E 13 20 7 11 1025.0 1025.0 0.0
24/12:00pm 14.9 11.4 3.4 46 5.2 E 11 20 6 11 1025.6 1025.6 0.0
24/11:30am 14.0 10.0 2.9 47 4.9 ENE 13 22 7 12 1025.9 1025.9 0.0
24/11:00am 13.9 10.9 3.9 51 4.5 ENE 9 17 5 9 1026.0 1026.0 0.0
24/10:30am 12.8 8.9 3.5 53 4.2 E 13 20 7 11 1026.4 1026.4 0.0
24/10:00am 12.2 8.2 2.9 53 4.1 E 13 20 7 11 1026.4 1026.4 0.0
24/09:30am 11.1 8.0 3.4 59 3.4 E 9 17 5 9 1026.7 1026.7 0.0
24/09:00am 10.0 7.0 4.0 66 2.6 E 9 17 5 9 1026.6 1026.6 0.0
24/08:30am 8.5 4.9 3.1 69 2.3 E 11 17 6 9 1026.5 1026.5 0.0
24/08:00am 7.7 4.5 3.0 72 2.0 ENE 9 17 5 9 1026.1 1026.1 0.0
24/07:30am 5.9 3.0 2.5 79 1.4 ENE 7 15 4 8 1025.9 1025.9 0.0
24/07:00am 4.9 2.5 1.9 81 1.2 ENE 4 11 2 6 1025.8 1025.8 0.0
24/06:30am 5.3 2.3 2.0 79 1.3 ENE 7 11 4 6 1025.6 1025.6 0.0
24/06:00am 5.6 2.2 2.1 78 1.4 ENE 9 13 5 7 1025.4 1025.4 0.0
24/05:30am 5.2 2.4 2.0 80 1.3 ENE 6 11 3 6 1025.1 1025.1 0.0
24/05:00am 5.3 2.5 2.1 80 1.3 ENE 6 9 3 5 1025.0 1025.0 0.0
24/04:30am 5.4 3.0 2.1 79 1.3 ENE 4 9 2 5 1025.0 1025.0 0.0
24/04:00am 4.8 2.4 2.3 84 1.0 E 4 7 2 4 1025.1 1025.1 0.0
24/03:30am 5.0 2.3 2.7 85 0.9 E 6 7 3 4 1025.1 1025.1 0.0
24/03:00am 5.3 3.0 2.8 84 1.0 E 4 9 2 5 1025.3 1025.3 0.0
24/02:30am 4.6 2.4 3.3 91 0.5 E 4 11 2 6 1025.2 1025.2 0.0
24/02:00am 4.2 2.3 2.9 91 0.5 E 2 6 1 3 1025.2 1025.2 0.0
24/01:30am 4.9 3.6 3.9 93 0.4 CALM 0 0 0 0 1025.3 1025.3 0.0
24/01:00am 3.8 1.9 2.6 92 0.5 E 2 6 1 3 1025.2 1025.2 0.0
24/12:30am 4.0 2.5 2.8 92 0.5 CALM 0 0 0 0 1025.1 1025.1 0.0
24/12:00am 4.3 2.8 2.8 90 0.6 CALM 0 0 0 0 1024.9 1024.9 0.0
 
Date/Time
WST
Temp
°C
App
Temp
°C
Dew
Point
°C
Rel
Hum
%
Delta-T
°C
Wind Press
QNH
hPa
Press
MSL
hPa
Rain since
9am
mm
Dir  Spd
km/h
Gust
km/h
Spd
kts
Gust
kts
23/11:30pm 4.9 3.5 3.4 90 0.6 CALM 0 0 0 0 1024.9 1024.9 0.0
23/11:00pm 5.1 3.7 3.6 90 0.6 CALM 0 0 0 0 1025.0 1025.0 0.0
23/10:30pm 5.5 4.1 3.5 87 0.8 CALM 0 0 0 0 1025.0 1025.0 0.0
23/10:00pm 5.9 4.5 3.6 85 1.0 CALM 0 0 0 0 1024.9 1024.9 0.0
23/09:30pm 6.7 5.5 4.4 85 1.0 CALM 0 0 0 0 1024.9 1024.9 0.0
23/09:00pm 7.0 5.7 4.1 82 1.2 CALM 0 0 0 0 1024.9 1024.9 0.0
23/08:30pm 7.6 6.3 4.0 78 1.6 CALM 0 0 0 0 1024.7 1024.7 0.0
23/08:00pm 8.3 7.0 4.1 75 1.8 CALM 0 0 0 0 1024.5 1024.5 0.0
23/07:30pm 9.1 7.8 4.3 72 2.1 CALM 0 0 0 0 1024.1 1024.1 0.0
23/07:00pm 10.1 8.7 3.8 65 2.8 CALM 0 0 0 0 1023.9 1023.9 0.0
23/06:30pm 11.5 9.6 3.0 56 3.7 E 2 6 1 3 1023.6 1023.6 0.0
23/06:00pm 13.0 10.3 2.8 50 4.5 E 6 13 3 7 1023.3 1023.3 0.0
23/05:30pm 14.1 11.4 2.4 45 5.2 E 6 13 3 7 1023.0 1023.0 0.0
23/05:00pm 14.7 12.0 2.9 45 5.3 E 6 9 3 5 1022.6 1022.6 0.0
23/04:30pm 15.5 12.2 2.3 41 5.9 E 9 19 5 10 1022.5 1022.5 0.0
23/04:00pm 15.8 13.0 3.3 43 5.7 SSE 7 11 4 6 1022.4 1022.4 0.0
23/03:30pm 16.4 13.5 2.8 40 6.2 SE 7 13 4 7 1022.2 1022.2 0.0
23/03:00pm 16.0 12.7 2.4 40 6.1 SE 9 17 5 9 1022.3 1022.3 0.0
23/02:30pm 15.8 12.0 1.9 39 6.2 ESE 11 22 6 12 1022.3 1022.3 0.0
23/02:00pm 15.8 11.6 1.5 38 6.3 SSE 13 20 7 11 1022.3 1022.3 0.0
23/01:30pm 15.8 12.5 2.6 41 5.9 SE 9 17 5 9 1022.4 1022.4 0.0
23/01:00pm 15.4 12.1 2.2 41 5.8 E 9 17 5 9 1022.8 1022.8 0.0
23/12:30pm 15.5 12.2 4.3 47 5.2 SSE 11 17 6 9 1023.3 1023.3 0.0
23/12:00pm 15.1 12.0 3.6 46 5.2 ESE 9 19 5 10 1023.6 1023.6 0.0
23/11:30am 14.5 12.0 5.0 53 4.4 SSE 7 13 4 7 1024.1 1024.1 0.0

Latest Capital City Observations: Canberra | Sydney | Melbourne | Brisbane | Adelaide | Perth | Hobart | Darwin

Other Formats:

Comma delimited format used in spreadsheet applications
http://www.bom.gov.au/fwo/IDW60901/IDW60901.94608.axf

JavaScript Object Notation format (JSON) in row-major order
http://www.bom.gov.au/fwo/IDW60901/IDW60901.94608.json